createdAt,value
2022-08-09T00:00:40.201Z,91.82
2022-08-09T00:04:00.772Z,96.58
2022-08-09T00:06:39.763Z,100.00
2022-08-09T00:09:31.245Z,99.26
2022-08-09T00:12:22.688Z,97.12
2022-08-09T00:15:13.895Z,98.41
2022-08-09T00:18:05.229Z,99.73
2022-08-09T00:20:58.590Z,99.67
2022-08-09T00:23:56.723Z,100.00
2022-08-09T00:26:45.967Z,100.00
2022-08-09T00:30:10.170Z,100.00
2022-08-09T00:32:42.498Z,100.00
2022-08-09T00:35:43.337Z,100.00
2022-08-09T00:38:30.669Z,100.00
2022-08-09T00:44:16.856Z,100.00
2022-08-09T00:44:29.406Z,100.00
2022-08-09T00:47:16.991Z,100.00
2022-08-09T00:50:07.489Z,100.00
2022-08-09T00:53:08.866Z,100.00
2022-08-09T00:56:05.906Z,100.00
2022-08-09T00:58:57.465Z,100.00
2022-08-09T01:01:50.038Z,100.00
2022-08-09T01:05:02.728Z,100.00
2022-08-09T01:08:13.529Z,100.00
2022-08-09T01:11:21.024Z,100.00
2022-08-09T01:14:26.801Z,100.00
2022-08-09T01:17:30.365Z,100.00
2022-08-09T01:20:36.365Z,100.00
2022-08-09T01:24:03.431Z,100.00
2022-08-09T01:27:26.628Z,100.00
2022-08-09T01:30:28.799Z,100.00
2022-08-09T01:33:27.144Z,100.00
2022-08-09T01:36:19.090Z,100.00
2022-08-09T01:39:06.759Z,100.00
2022-08-09T01:41:59.928Z,100.00
2022-08-09T01:44:49.781Z,100.00
2022-08-09T01:47:44.500Z,100.00
2022-08-09T01:50:36.814Z,100.00
2022-08-09T01:53:40.937Z,100.00
2022-08-09T01:56:30.814Z,100.00
2022-08-09T01:59:19.606Z,100.00
2022-08-09T02:02:10.477Z,100.00
2022-08-09T02:05:05.624Z,100.00
2022-08-09T02:08:39.294Z,100.00
2022-08-09T02:11:19.080Z,100.00
2022-08-09T02:14:09.359Z,100.00
2022-08-09T02:16:59.612Z,100.00
2022-08-09T02:20:02.578Z,100.00
2022-08-09T02:23:05.144Z,100.00
2022-08-09T02:25:57.952Z,100.00
2022-08-09T02:28:54.836Z,100.00
2022-08-09T02:31:47.343Z,100.00
2022-08-09T02:34:40.170Z,100.00
2022-08-09T02:37:12.181Z,100.00
2022-08-09T02:39:45.135Z,100.00
2022-08-09T02:42:20.095Z,100.00
2022-08-09T02:44:58.987Z,100.00
2022-08-09T02:47:33.963Z,100.00
2022-08-09T02:50:38.297Z,100.00
2022-08-09T02:53:25.737Z,100.00
2022-08-09T02:55:59.135Z,100.00
2022-08-09T02:58:36.764Z,100.00
2022-08-09T03:01:21.624Z,100.00
2022-08-09T03:04:17.597Z,100.00
2022-08-09T03:06:45.383Z,100.00
2022-08-09T03:09:13.562Z,100.00
2022-08-09T03:12:10.376Z,100.00
2022-08-09T03:14:31.787Z,100.00
2022-08-09T03:17:01.854Z,100.00
2022-08-09T03:19:57.888Z,100.00
2022-08-09T03:22:25.426Z,100.00
2022-08-09T03:25:06.315Z,100.00
2022-08-09T03:27:51.893Z,100.00
2022-08-09T03:30:33.486Z,100.00
2022-08-09T03:33:17.361Z,100.00
2022-08-09T03:36:12.975Z,100.00
2022-08-09T03:38:37.325Z,100.00
2022-08-09T03:41:09.217Z,100.00
2022-08-09T03:43:36.502Z,100.00
2022-08-09T03:46:20.187Z,100.00
2022-08-09T03:48:58.763Z,100.00
2022-08-09T03:51:57.218Z,100.00
2022-08-09T03:54:19.322Z,100.00
2022-08-09T03:56:58.186Z,100.00
2022-08-09T03:59:33.013Z,100.00
2022-08-09T04:02:12.202Z,100.00
2022-08-09T04:04:41.323Z,100.00
2022-08-09T04:07:13.137Z,100.00
2022-08-09T04:09:47.460Z,100.00
2022-08-09T04:12:30.519Z,100.00
2022-08-09T04:15:02.558Z,100.00
2022-08-09T04:17:42.405Z,100.00
2022-08-09T04:20:15.593Z,100.00
2022-08-09T04:22:45.784Z,100.00
2022-08-09T04:25:15.499Z,100.00
2022-08-09T04:27:49.021Z,100.00
2022-08-09T04:30:20.884Z,100.00
2022-08-09T04:32:51.282Z,100.00
2022-08-09T04:35:21.612Z,100.00
2022-08-09T04:37:48.432Z,100.00
2022-08-09T04:40:28.459Z,100.00
2022-08-09T04:43:01.974Z,100.00
2022-08-09T04:45:36.226Z,100.00
2022-08-09T04:48:19.224Z,100.00
2022-08-09T04:50:46.075Z,100.00
2022-08-09T04:53:16.510Z,100.00
2022-08-09T04:55:57.797Z,100.00
2022-08-09T04:58:26.143Z,100.00
2022-08-09T05:00:54.497Z,100.00
2022-08-09T05:03:40.570Z,100.00
2022-08-09T05:06:22.021Z,100.00
2022-08-09T05:09:00.763Z,100.00
2022-08-09T05:11:30.443Z,100.00
2022-08-09T05:14:06.729Z,100.00
2022-08-09T05:16:58.197Z,100.00
2022-08-09T05:19:44.572Z,100.00
2022-08-09T05:22:36.257Z,100.00
2022-08-09T05:25:02.612Z,100.00
2022-08-09T05:27:31.739Z,100.00
2022-08-09T05:29:58.947Z,100.00
2022-08-09T05:32:26.551Z,100.00
2022-08-09T05:34:58.963Z,100.00
2022-08-09T05:37:26.131Z,100.00
2022-08-09T05:39:53.341Z,100.00
2022-08-09T05:42:21.920Z,100.00
2022-08-09T05:44:59.994Z,100.00
2022-08-09T05:47:30.356Z,100.00
2022-08-09T05:50:25.257Z,100.00
2022-08-09T05:52:53.810Z,98.45
2022-08-09T05:55:25.628Z,95.76
2022-08-09T05:57:56.524Z,78.26
2022-08-09T06:00:29.783Z,61.50
2022-08-09T06:02:57.970Z,56.88
2022-08-09T06:05:56.923Z,49.58
2022-08-09T06:08:19.805Z,52.09
2022-08-09T06:10:52.785Z,51.19
2022-08-09T06:13:20.654Z,54.01
2022-08-09T06:15:52.315Z,51.40
2022-08-09T06:18:25.458Z,49.80
2022-08-09T06:20:57.433Z,46.79
2022-08-09T06:23:57.752Z,44.39
2022-08-09T06:26:20.947Z,40.50
2022-08-09T06:28:50.332Z,48.53
2022-08-09T06:31:39.271Z,60.97
2022-08-09T06:34:22.513Z,72.82
2022-08-09T06:36:59.474Z,80.34
2022-08-09T06:39:48.872Z,83.92
2022-08-09T06:42:15.523Z,83.55
2022-08-09T06:44:42.120Z,79.03
2022-08-09T06:47:10.038Z,64.12
2022-08-09T06:50:11.998Z,50.21
2022-08-09T06:52:27.582Z,45.69
2022-08-09T06:54:54.419Z,45.01
2022-08-09T06:58:01.495Z,39.72
2022-08-09T07:00:55.140Z,40.64
2022-08-09T07:03:06.099Z,38.02
2022-08-09T07:06:02.588Z,38.44
2022-08-09T07:08:19.487Z,37.80
2022-08-09T07:10:56.101Z,35.25
2022-08-09T07:13:27.879Z,35.31
2022-08-09T07:16:41.867Z,37.07
2022-08-09T07:18:44.744Z,36.96
2022-08-09T07:21:16.918Z,32.86
2022-08-09T07:23:46.624Z,34.53
2022-08-09T07:26:23.443Z,37.11
2022-08-09T07:29:09.264Z,34.04
2022-08-09T07:31:45.502Z,33.05
2022-08-09T07:34:19.408Z,35.35
2022-08-09T07:36:48.571Z,32.44
2022-08-09T07:39:20.428Z,37.25
2022-08-09T07:42:02.429Z,33.51
2022-08-09T07:44:52.539Z,34.32
2022-08-09T07:47:18.894Z,30.85
2022-08-09T07:50:04.624Z,31.62
2022-08-09T07:52:35.805Z,28.63
2022-08-09T07:55:08.912Z,32.50
2022-08-09T07:57:36.644Z,28.61
2022-08-09T08:00:09.024Z,28.32
2022-08-09T08:02:42.840Z,25.38
2022-08-09T08:05:17.929Z,27.44
2022-08-09T08:08:06.304Z,25.59
2022-08-09T08:10:34.362Z,26.27
2022-08-09T08:13:01.535Z,27.59
2022-08-09T08:15:37.666Z,25.01
2022-08-09T08:18:08.433Z,27.33
2022-08-09T08:20:38.279Z,27.63
2022-08-09T08:23:17.155Z,27.42
2022-08-09T08:25:49.927Z,27.87
2022-08-09T08:28:26.005Z,25.73
2022-08-09T08:31:06.101Z,25.07
2022-08-09T08:33:53.848Z,25.56
2022-08-09T08:36:28.952Z,25.85
2022-08-09T08:38:59.815Z,26.04
2022-08-09T08:41:41.998Z,26.31
2022-08-09T08:44:27.228Z,28.06
2022-08-09T08:47:04.573Z,27.34
2022-08-09T08:49:48.549Z,24.79
2022-08-09T08:52:57.510Z,24.23
2022-08-09T08:55:13.567Z,22.96
2022-08-09T08:57:42.223Z,24.07
2022-08-09T09:00:20.461Z,24.67
2022-08-09T09:02:52.761Z,21.36
2022-08-09T09:05:57.727Z,23.97
2022-08-09T09:08:30.562Z,19.87
2022-08-09T09:11:02.634Z,20.09
2022-08-09T09:13:41.781Z,20.33
2022-08-09T09:16:30.629Z,19.93
2022-08-09T09:19:22.656Z,18.45
2022-08-09T09:22:26.793Z,16.72
2022-08-09T09:26:00.335Z,19.01
2022-08-09T09:28:05.189Z,19.73
2022-08-09T09:30:40.865Z,18.52
2022-08-09T09:33:15.931Z,18.09
2022-08-09T09:36:02.488Z,16.21
2022-08-09T09:38:56.753Z,16.51
2022-08-09T09:41:27.684Z,18.54
2022-08-09T09:44:12.035Z,19.20
2022-08-09T09:46:52.258Z,17.36
2022-08-09T09:49:31.642Z,18.46
2022-08-09T09:52:33.617Z,17.50
2022-08-09T09:55:16.398Z,17.16
2022-08-09T09:58:03.426Z,22.35
2022-08-09T10:01:00.522Z,21.08
2022-08-09T10:04:03.253Z,21.97
2022-08-09T10:06:43.415Z,19.49
2022-08-09T10:09:22.774Z,19.06
2022-08-09T10:12:12.205Z,16.34
2022-08-09T10:14:48.266Z,17.82
2022-08-09T10:17:40.649Z,18.12
2022-08-09T10:20:27.839Z,15.05
2022-08-09T10:23:13.513Z,16.39
2022-08-09T10:26:06.587Z,15.93
2022-08-09T10:28:32.221Z,17.52
2022-08-09T10:34:10.129Z,20.20
2022-08-09T10:36:37.339Z,19.98
2022-08-09T10:39:15.510Z,19.42
2022-08-09T10:41:45.098Z,19.58
2022-08-09T10:44:18.978Z,19.01
2022-08-09T10:48:19.184Z,18.32
2022-08-09T10:51:04.060Z,16.42
2022-08-09T10:54:05.976Z,16.07
2022-08-09T10:56:41.094Z,15.31
2022-08-09T10:59:31.307Z,19.42
2022-08-09T11:03:14.038Z,25.15
2022-08-09T11:05:24.939Z,29.62
2022-08-09T11:08:17.155Z,31.84
2022-08-09T11:10:54.316Z,32.89
2022-08-09T11:13:54.133Z,34.39
2022-08-09T11:16:37.795Z,34.76
2022-08-09T11:19:11.402Z,33.37
2022-08-09T11:21:57.036Z,32.53
2022-08-09T11:24:56.988Z,32.87
2022-08-09T11:28:05.538Z,34.03
2022-08-09T11:30:33.221Z,35.08
2022-08-09T11:33:07.987Z,35.33
2022-08-09T11:35:50.001Z,35.63
2022-08-09T11:38:32.473Z,35.26
2022-08-09T11:41:37.905Z,34.67
2022-08-09T11:44:07.936Z,35.18
2022-08-09T11:46:54.174Z,35.98
2022-08-09T11:50:52.583Z,35.25
2022-08-09T11:53:28.046Z,36.47
2022-08-09T11:55:53.767Z,35.57
2022-08-09T11:58:32.972Z,34.75
2022-08-09T12:01:15.389Z,34.66
2022-08-09T12:04:03.455Z,35.79
2022-08-09T12:06:35.089Z,35.75
2022-08-09T12:09:19.616Z,34.91
2022-08-09T12:12:03.188Z,35.96
2022-08-09T12:14:40.711Z,35.20
2022-08-09T12:17:34.644Z,35.43
2022-08-09T12:20:22.855Z,36.26
2022-08-09T12:23:05.649Z,36.97
2022-08-09T12:25:38.229Z,37.49
2022-08-09T12:29:00.355Z,37.69
2022-08-09T12:31:58.666Z,36.68
2022-08-09T12:34:39.895Z,36.17
2022-08-09T12:37:21.876Z,35.50
2022-08-09T12:40:05.475Z,36.24
2022-08-09T12:42:33.059Z,36.81
2022-08-09T12:45:00.713Z,37.03
2022-08-09T12:47:37.592Z,37.27
2022-08-09T12:50:23.532Z,36.78
2022-08-09T12:53:17.660Z,36.56
2022-08-09T12:56:11.819Z,36.58
2022-08-09T12:58:28.688Z,36.76
2022-08-09T13:00:59.142Z,36.81
2022-08-09T13:03:53.545Z,37.42
2022-08-09T13:06:34.739Z,37.78
2022-08-09T13:09:13.069Z,36.84
2022-08-09T13:11:46.561Z,37.15
2022-08-09T13:14:41.146Z,36.94
2022-08-09T13:17:15.893Z,37.13
2022-08-09T13:20:10.333Z,37.07
2022-08-09T13:23:01.624Z,37.58
2022-08-09T13:25:24.585Z,37.13
2022-08-09T13:27:56.032Z,36.20
2022-08-09T13:30:49.400Z,35.78
2022-08-09T13:33:35.885Z,36.43
2022-08-09T13:36:38.496Z,37.02
2022-08-09T13:41:21.288Z,36.01
2022-08-09T13:41:58.442Z,36.71
2022-08-09T13:44:27.178Z,37.11
2022-08-09T13:47:29.234Z,37.26
2022-08-09T13:49:57.450Z,36.52
2022-08-09T13:52:28.724Z,36.16
2022-08-09T13:54:59.057Z,35.73
2022-08-09T13:57:35.662Z,35.88
2022-08-09T14:00:09.004Z,36.29
2022-08-09T14:02:42.203Z,36.11
2022-08-09T14:05:12.150Z,36.88
2022-08-09T14:07:41.927Z,35.87
2022-08-09T14:10:17.538Z,36.11
2022-08-09T14:13:02.258Z,36.71
2022-08-09T14:16:06.736Z,36.20
2022-08-09T14:18:29.634Z,36.57
2022-08-09T14:21:00.894Z,36.45
2022-08-09T14:23:40.318Z,36.57
2022-08-09T14:26:15.862Z,36.29
2022-08-09T14:28:47.459Z,36.22
2022-08-09T14:31:16.101Z,36.01
2022-08-09T14:33:42.671Z,36.51
2022-08-09T14:36:20.690Z,35.08
2022-08-09T14:38:51.216Z,35.45
2022-08-09T14:41:34.902Z,35.90
2022-08-09T14:44:11.349Z,36.98
2022-08-09T14:47:00.284Z,36.26
2022-08-09T14:49:28.881Z,36.74
2022-08-09T14:52:05.869Z,36.78
2022-08-09T14:54:33.919Z,37.20
2022-08-09T14:57:03.028Z,37.78
2022-08-09T14:59:32.459Z,37.19
2022-08-09T15:02:06.445Z,36.72
2022-08-09T15:04:37.983Z,36.63
2022-08-09T15:07:04.650Z,35.59
2022-08-09T15:10:10.295Z,35.81
2022-08-09T15:12:28.003Z,36.16
2022-08-09T15:14:54.542Z,36.51
2022-08-09T15:17:26.254Z,35.78
2022-08-09T15:20:02.296Z,36.07
2022-08-09T15:22:32.953Z,36.45
2022-08-09T15:25:06.067Z,36.50
2022-08-09T15:27:48.147Z,36.98
2022-08-09T15:30:57.138Z,37.26
2022-08-09T15:33:23.430Z,36.44
2022-08-09T15:36:05.817Z,36.61
2022-08-09T15:38:36.159Z,35.26
2022-08-09T15:41:09.705Z,35.59
2022-08-09T15:43:39.163Z,35.43
2022-08-09T15:46:32.695Z,35.87
2022-08-09T15:49:22.558Z,35.92
2022-08-09T15:52:03.699Z,36.73
2022-08-09T15:54:49.132Z,36.88
2022-08-09T15:57:35.588Z,36.59
2022-08-09T16:00:14.590Z,37.08
2022-08-09T16:02:54.083Z,36.90
2022-08-09T16:05:26.577Z,36.20
2022-08-09T16:08:15.183Z,36.95
2022-08-09T16:11:03.203Z,36.48
2022-08-09T16:14:05.457Z,36.07
2022-08-09T16:16:20.066Z,35.52
2022-08-09T16:18:53.262Z,35.42
2022-08-09T16:21:25.530Z,36.42
2022-08-09T16:23:55.500Z,36.29
2022-08-09T16:26:33.871Z,35.94
2022-08-09T16:29:12.859Z,36.17
2022-08-09T16:32:18.513Z,36.44
2022-08-09T16:34:55.383Z,36.23
2022-08-09T16:37:18.356Z,36.26
2022-08-09T16:39:48.097Z,36.27
2022-08-09T16:42:32.681Z,36.25
2022-08-09T16:44:59.229Z,36.06
2022-08-09T16:48:41.537Z,36.09
2022-08-09T16:50:31.820Z,35.98
2022-08-09T16:53:02.185Z,36.33
2022-08-09T16:55:58.254Z,37.03
2022-08-09T16:58:21.239Z,37.06
2022-08-09T17:00:48.952Z,36.95
2022-08-09T17:03:21.603Z,36.99
2022-08-09T17:06:07.278Z,37.12
2022-08-09T17:09:01.645Z,37.43
2022-08-09T17:11:40.655Z,38.03
2022-08-09T17:14:25.730Z,38.16
2022-08-09T17:17:01.551Z,38.44
2022-08-09T17:20:09.126Z,37.64
2022-08-09T17:22:24.063Z,37.86
2022-08-09T17:25:03.636Z,38.40
2022-08-09T17:27:37.521Z,38.43
2022-08-09T17:30:14.198Z,37.82
2022-08-09T17:32:45.511Z,38.17
2022-08-09T17:35:13.984Z,37.82
2022-08-09T17:38:14.450Z,38.09
2022-08-09T17:40:29.701Z,38.44
2022-08-09T17:42:59.804Z,38.86
2022-08-09T17:46:03.738Z,38.56
2022-08-09T17:48:29.637Z,38.67
2022-08-09T17:50:59.206Z,38.65
2022-08-09T17:53:30.393Z,38.82
2022-08-09T17:56:03.270Z,38.92
2022-08-09T17:58:34.185Z,38.88
2022-08-09T18:01:03.884Z,39.02
2022-08-09T18:03:31.913Z,39.58
2022-08-09T18:06:00.791Z,40.30
2022-08-09T18:08:28.132Z,39.61
2022-08-09T18:11:01.968Z,40.63
2022-08-09T18:13:43.499Z,40.69
2022-08-09T18:16:30.396Z,40.58
2022-08-09T18:19:03.826Z,40.65
2022-08-09T18:21:50.206Z,40.75
2022-08-09T18:24:17.036Z,40.52
2022-08-09T18:26:46.665Z,41.41
2022-08-09T18:30:41.746Z,41.62
2022-08-09T18:32:07.512Z,41.07
2022-08-09T18:34:38.966Z,42.17
2022-08-09T18:37:10.439Z,42.13
2022-08-09T18:39:58.237Z,42.83
2022-08-09T18:42:29.143Z,42.33
2022-08-09T18:44:57.050Z,43.22
2022-08-09T18:47:37.201Z,43.31
2022-08-09T18:50:06.144Z,44.70
2022-08-09T18:52:35.832Z,44.46
2022-08-09T18:55:06.250Z,44.37
2022-08-09T18:57:44.859Z,45.82
2022-08-09T19:00:16.633Z,45.41
2022-08-09T19:02:50.840Z,45.07
2022-08-09T19:05:41.300Z,47.04
2022-08-09T19:08:10.631Z,46.08
2022-08-09T19:10:39.581Z,45.72
2022-08-09T19:13:20.920Z,45.94
2022-08-09T19:15:55.692Z,45.44
2022-08-09T19:18:37.365Z,46.12
2022-08-09T19:21:09.913Z,47.14
2022-08-09T19:24:37.669Z,48.28
2022-08-09T19:26:31.415Z,48.29
2022-08-09T19:29:15.439Z,48.54
2022-08-09T19:31:51.055Z,49.60
2022-08-09T19:34:22.553Z,49.02
2022-08-09T19:36:52.781Z,50.14
2022-08-09T19:39:42.873Z,49.85
2022-08-09T19:42:14.595Z,50.92
2022-08-09T19:44:44.352Z,51.04
2022-08-09T19:47:22.734Z,50.58
2022-08-09T19:50:06.767Z,50.33
2022-08-09T19:52:49.722Z,52.54
2022-08-09T19:55:30.795Z,52.17
2022-08-09T19:58:16.615Z,51.50
2022-08-09T20:00:46.838Z,52.06
2022-08-09T20:04:17.254Z,53.78
2022-08-09T20:06:03.164Z,52.55
2022-08-09T20:08:34.707Z,53.35
2022-08-09T20:11:04.548Z,53.65
2022-08-09T20:13:36.801Z,53.82
2022-08-09T20:16:36.817Z,54.56
2022-08-09T20:19:43.110Z,55.02
2022-08-09T20:21:56.037Z,55.15
2022-08-09T20:24:29.865Z,55.76
2022-08-09T20:27:02.091Z,55.82
2022-08-09T20:29:37.350Z,56.29
2022-08-09T20:32:29.868Z,58.29
2022-08-09T20:34:59.200Z,59.06
2022-08-09T20:38:18.696Z,59.74
2022-08-09T20:40:26.375Z,61.80
2022-08-09T20:43:18.383Z,61.07
2022-08-09T20:45:59.543Z,62.11
2022-08-09T20:48:31.011Z,63.05
2022-08-09T20:50:58.966Z,64.23
2022-08-09T20:53:35.246Z,64.19
2022-08-09T20:56:21.242Z,63.49
2022-08-09T20:58:54.243Z,64.34
2022-08-09T21:01:34.197Z,63.82
2022-08-09T21:05:51.662Z,65.48
2022-08-09T21:07:40.456Z,67.48
2022-08-09T21:10:30.559Z,67.98
2022-08-09T21:13:17.537Z,67.02
2022-08-09T21:16:19.196Z,70.66
2022-08-09T21:20:18.681Z,69.31
2022-08-09T21:22:36.316Z,69.57
2022-08-09T21:25:38.875Z,70.98
2022-08-09T21:28:34.656Z,73.04
2022-08-09T21:31:22.959Z,74.21
2022-08-09T21:34:09.908Z,75.65
2022-08-09T21:36:56.908Z,72.89
2022-08-09T21:39:43.813Z,74.23
2022-08-09T21:42:30.801Z,74.73
2022-08-09T21:45:19.973Z,74.75
2022-08-09T21:48:07.716Z,76.27
2022-08-09T21:50:54.661Z,80.39
2022-08-09T21:53:41.788Z,80.56
2022-08-09T21:56:42.933Z,80.31
2022-08-09T21:59:43.081Z,94.69
2022-08-09T22:02:36.269Z,81.56
2022-08-09T22:05:23.968Z,85.47
2022-08-09T22:08:27.212Z,84.14
2022-08-09T22:12:05.332Z,86.37
2022-08-09T22:14:21.025Z,86.15
2022-08-09T22:17:08.841Z,91.07
2022-08-09T22:19:59.612Z,88.45
2022-08-09T22:22:48.505Z,90.07
2022-08-09T22:26:05.710Z,93.09
2022-08-09T22:28:47.345Z,91.06
2022-08-09T22:31:44.177Z,94.10
2022-08-09T22:34:41.041Z,93.13
2022-08-09T22:37:28.024Z,94.22
2022-08-09T22:40:25.602Z,97.61
2022-08-09T22:43:16.812Z,96.02
2022-08-09T22:48:10.519Z,96.31
2022-08-09T22:49:20.678Z,96.86
2022-08-09T22:52:08.892Z,96.68
2022-08-09T22:54:56.892Z,96.64
2022-08-09T22:57:59.271Z,98.94
2022-08-09T23:00:46.612Z,97.90
2022-08-09T23:04:03.721Z,98.88
2022-08-09T23:07:00.986Z,100.00
2022-08-09T23:09:50.545Z,99.53
2022-08-09T23:12:37.467Z,100.00
2022-08-09T23:15:24.394Z,100.00
2022-08-09T23:18:11.356Z,100.00
2022-08-09T23:20:58.303Z,100.00
2022-08-09T23:24:05.072Z,100.00
2022-08-09T23:26:54.381Z,100.00
2022-08-09T23:29:41.428Z,100.00
2022-08-09T23:32:28.262Z,100.00
2022-08-09T23:35:15.471Z,100.00
2022-08-09T23:38:02.297Z,100.00
2022-08-09T23:40:51.350Z,100.00
2022-08-09T23:43:38.220Z,100.00
2022-08-09T23:46:25.556Z,100.00
2022-08-09T23:49:12.500Z,100.00
2022-08-09T23:51:59.366Z,100.00
2022-08-09T23:54:46.185Z,100.00
2022-08-09T23:57:46.838Z,100.00
